createdAt,value
2019-01-17T00:00:36.114Z,4.90
2019-01-17T00:03:18.444Z,4.90
2019-01-17T00:05:48.522Z,4.90
2019-01-17T00:08:24.323Z,4.90
2019-01-17T00:10:54.368Z,4.90
2019-01-17T00:13:24.485Z,5.00
2019-01-17T00:16:00.643Z,5.00
2019-01-17T00:18:30.692Z,5.00
2019-01-17T00:21:00.757Z,5.00
2019-01-17T00:23:36.734Z,5.00
2019-01-17T00:26:23.385Z,4.90
2019-01-17T00:28:59.415Z,5.00
2019-01-17T00:31:32.407Z,5.00
2019-01-17T00:34:11.268Z,4.90
2019-01-17T00:36:41.304Z,4.90
2019-01-17T00:39:14.312Z,5.00
2019-01-17T00:41:59.073Z,4.90
2019-01-17T00:44:38.209Z,4.90
2019-01-17T00:47:10.664Z,4.90
2019-01-17T00:49:40.722Z,4.90
2019-01-17T00:52:13.614Z,4.90
2019-01-17T00:55:00.228Z,4.90
2019-01-17T00:57:39.421Z,5.00
2019-01-17T01:00:12.545Z,4.90
2019-01-17T01:02:42.756Z,5.00
2019-01-17T01:05:12.974Z,5.00
2019-01-17T01:07:45.912Z,5.00
2019-01-17T01:10:30.643Z,5.00
2019-01-17T01:13:03.557Z,5.00
2019-01-17T01:15:37.438Z,5.00
2019-01-17T01:18:23.420Z,5.00
2019-01-17T01:20:53.472Z,5.00
2019-01-17T01:23:23.512Z,5.00
2019-01-17T01:25:56.497Z,5.00
2019-01-17T01:28:26.544Z,5.00
2019-01-17T01:30:59.724Z,5.00
2019-01-17T01:33:29.764Z,5.00
2019-01-17T01:36:05.792Z,4.90
2019-01-17T01:38:35.843Z,5.00
2019-01-17T01:41:05.902Z,4.90
2019-01-17T01:43:42.820Z,5.00
2019-01-17T01:46:29.120Z,5.10
2019-01-17T01:49:11.269Z,5.00
2019-01-17T01:51:47.453Z,5.00
2019-01-17T01:54:21.845Z,5.00
2019-01-17T01:56:45.997Z,5.00
2019-01-17T01:59:14.761Z,5.00
2019-01-17T02:01:43.175Z,5.00
2019-01-17T02:04:11.641Z,5.00
2019-01-17T02:06:40.072Z,5.00
2019-01-17T02:09:08.552Z,5.10
2019-01-17T02:11:37.223Z,5.00
2019-01-17T02:14:06.484Z,5.00
2019-01-17T02:16:34.880Z,5.00
2019-01-17T02:19:03.305Z,5.10
2019-01-17T02:21:31.716Z,5.00
2019-01-17T02:24:00.129Z,5.10
2019-01-17T02:26:28.535Z,5.10
2019-01-17T02:28:56.956Z,5.20
2019-01-17T02:31:25.588Z,5.20
2019-01-17T02:33:54.065Z,5.10
2019-01-17T02:36:22.829Z,5.20
2019-01-17T02:38:51.251Z,5.20
2019-01-17T02:41:19.711Z,5.10
2019-01-17T02:43:48.161Z,5.10
2019-01-17T02:46:16.572Z,5.10
2019-01-17T02:48:44.993Z,5.10
2019-01-17T02:51:13.383Z,5.20
2019-01-17T02:53:41.796Z,5.00
2019-01-17T02:56:10.180Z,5.00
2019-01-17T02:58:38.930Z,5.00
2019-01-17T03:01:07.338Z,5.00
2019-01-17T03:03:35.744Z,5.00
2019-01-17T03:06:04.213Z,5.00
2019-01-17T03:08:32.696Z,5.00
2019-01-17T03:11:01.122Z,5.00
2019-01-17T03:13:29.531Z,4.90
2019-01-17T03:15:57.938Z,4.90
2019-01-17T03:18:26.364Z,5.00
2019-01-17T03:20:54.821Z,4.90
2019-01-17T03:23:23.230Z,4.90
2019-01-17T03:25:51.678Z,4.90
2019-01-17T03:28:20.073Z,4.90
2019-01-17T03:30:48.490Z,4.80
2019-01-17T03:33:16.886Z,4.80
2019-01-17T03:35:45.292Z,4.80
2019-01-17T03:38:13.797Z,4.80
2019-01-17T03:40:42.300Z,4.80
2019-01-17T03:43:10.696Z,4.70
2019-01-17T03:45:39.097Z,4.70
2019-01-17T03:48:07.504Z,4.70
2019-01-17T03:50:36.601Z,4.60
2019-01-17T03:53:05.068Z,4.60
2019-01-17T03:55:33.493Z,4.70
2019-01-17T03:58:01.888Z,4.70
2019-01-17T04:00:30.932Z,4.80
2019-01-17T04:02:59.328Z,4.80
2019-01-17T04:05:27.732Z,4.80
2019-01-17T04:07:56.128Z,4.80
2019-01-17T04:10:24.546Z,4.80
2019-01-17T04:12:52.945Z,4.70
2019-01-17T04:15:21.348Z,4.70
2019-01-17T04:17:49.761Z,4.80
2019-01-17T04:20:18.146Z,4.80
2019-01-17T04:22:46.568Z,4.80
2019-01-17T04:25:15.234Z,4.80
2019-01-17T04:27:43.642Z,4.80
2019-01-17T04:30:16.837Z,4.80
2019-01-17T04:33:06.143Z,4.80
2019-01-17T04:35:34.556Z,4.80
2019-01-17T04:38:02.959Z,4.70
2019-01-17T04:40:31.369Z,4.70
2019-01-17T04:42:59.761Z,4.80
2019-01-17T04:45:28.161Z,4.70
2019-01-17T04:47:56.569Z,4.90
2019-01-17T04:50:24.964Z,4.80
2019-01-17T04:52:53.380Z,4.80
2019-01-17T04:55:21.788Z,4.90
2019-01-17T04:57:50.188Z,4.80
2019-01-17T05:00:20.178Z,4.90
2019-01-17T05:02:48.575Z,4.80
2019-01-17T05:05:16.972Z,4.70
2019-01-17T05:07:45.521Z,4.70
2019-01-17T05:10:15.763Z,4.70
2019-01-17T05:12:44.164Z,4.80
2019-01-17T05:15:13.404Z,4.90
2019-01-17T05:17:42.081Z,4.90
2019-01-17T05:20:13.222Z,4.90
2019-01-17T05:22:41.639Z,4.90
2019-01-17T05:25:12.651Z,4.90
2019-01-17T05:27:41.006Z,5.00
2019-01-17T05:30:15.069Z,5.00
2019-01-17T05:32:43.465Z,5.00
2019-01-17T05:35:13.401Z,5.00
2019-01-17T05:37:42.081Z,5.00
2019-01-17T05:40:18.697Z,5.00
2019-01-17T05:42:47.381Z,5.10
2019-01-17T05:45:15.854Z,5.10
2019-01-17T05:47:44.789Z,5.10
2019-01-17T05:50:15.925Z,5.00
2019-01-17T05:52:44.580Z,5.00
2019-01-17T05:55:19.435Z,5.00
2019-01-17T05:57:43.388Z,5.00
2019-01-17T06:00:14.740Z,5.10
2019-01-17T06:02:43.135Z,5.00
2019-01-17T06:05:14.036Z,5.10
2019-01-17T06:07:42.925Z,5.10
2019-01-17T06:10:13.060Z,5.00
2019-01-17T06:12:41.729Z,5.00
2019-01-17T06:15:12.582Z,5.00
2019-01-17T06:17:40.984Z,5.00
2019-01-17T06:20:12.799Z,5.10
2019-01-17T06:22:41.199Z,5.10
2019-01-17T06:25:09.810Z,5.10
2019-01-17T06:27:38.193Z,5.10
2019-01-17T06:30:09.901Z,5.00
2019-01-17T06:32:38.300Z,5.00
2019-01-17T06:35:08.546Z,5.00
2019-01-17T06:37:36.955Z,5.00
2019-01-17T06:40:14.013Z,5.00
2019-01-17T06:42:42.428Z,4.90
2019-01-17T06:45:10.913Z,4.80
2019-01-17T06:47:39.325Z,4.80
2019-01-17T06:50:10.182Z,4.90
2019-01-17T06:52:38.580Z,4.90
2019-01-17T06:55:08.580Z,4.80
2019-01-17T06:57:37.122Z,4.80
2019-01-17T07:00:11.712Z,5.00
2019-01-17T07:02:40.119Z,4.90
2019-01-17T07:05:09.940Z,4.80
2019-01-17T07:07:38.344Z,4.90
2019-01-17T07:10:10.091Z,4.90
2019-01-17T07:12:38.494Z,4.90
2019-01-17T07:15:08.637Z,4.90
2019-01-17T07:17:37.360Z,4.90
2019-01-17T07:20:09.111Z,4.90
2019-01-17T07:22:38.873Z,4.90
2019-01-17T07:25:09.210Z,6.60
2019-01-17T07:27:37.777Z,7.20
2019-01-17T07:30:14.729Z,7.50
2019-01-17T07:32:43.136Z,7.40
2019-01-17T07:35:11.702Z,7.70
2019-01-17T07:37:40.367Z,7.30
2019-01-17T07:40:10.357Z,7.50
2019-01-17T07:42:38.768Z,7.80
2019-01-17T07:45:10.241Z,7.80
2019-01-17T07:47:38.639Z,7.40
2019-01-17T07:50:09.580Z,7.60
2019-01-17T07:52:37.988Z,7.70
2019-01-17T07:55:08.827Z,7.20
2019-01-17T07:57:37.619Z,7.80
2019-01-17T08:00:17.876Z,7.60
2019-01-17T08:02:46.280Z,8.20
2019-01-17T08:05:14.685Z,7.30
2019-01-17T08:07:43.099Z,6.40
2019-01-17T08:10:16.953Z,5.80
2019-01-17T08:12:45.912Z,5.70
2019-01-17T08:15:15.247Z,5.50
2019-01-17T08:17:43.760Z,5.40
2019-01-17T08:20:20.279Z,5.40
2019-01-17T08:22:48.685Z,5.30
2019-01-17T08:25:17.084Z,5.20
2019-01-17T08:27:45.506Z,5.20
2019-01-17T08:30:22.622Z,5.30
2019-01-17T08:32:51.401Z,5.40
2019-01-17T08:35:21.276Z,5.40
2019-01-17T08:37:49.684Z,5.40
2019-01-17T08:40:24.205Z,5.30
2019-01-17T08:42:52.980Z,5.30
2019-01-17T08:45:21.382Z,5.30
2019-01-17T08:47:49.782Z,5.40
2019-01-17T08:50:18.632Z,5.50
2019-01-17T08:52:47.024Z,5.40
2019-01-17T08:55:15.429Z,5.40
2019-01-17T08:57:44.384Z,5.30
2019-01-17T09:00:16.175Z,5.40
2019-01-17T09:02:44.564Z,5.50
2019-01-17T09:05:14.081Z,5.40
2019-01-17T09:07:44.294Z,5.40
2019-01-17T09:10:24.668Z,5.40
2019-01-17T09:12:53.124Z,5.40
2019-01-17T09:15:24.789Z,5.50
2019-01-17T09:17:53.364Z,5.50
2019-01-17T09:20:23.331Z,5.40
2019-01-17T09:22:52.114Z,5.40
2019-01-17T09:25:23.303Z,5.30
2019-01-17T09:27:51.976Z,5.40
2019-01-17T09:30:23.495Z,5.50
2019-01-17T09:32:53.580Z,5.60
2019-01-17T09:35:23.482Z,5.40
2019-01-17T09:37:52.004Z,5.50
2019-01-17T09:40:22.713Z,5.50
2019-01-17T09:42:51.189Z,5.50
2019-01-17T09:45:19.597Z,5.60
2019-01-17T09:47:48.261Z,5.60
2019-01-17T09:50:22.511Z,5.60
2019-01-17T09:52:51.927Z,5.70
2019-01-17T09:55:20.699Z,5.70
2019-01-17T09:57:49.210Z,5.70
2019-01-17T10:00:23.895Z,5.70
2019-01-17T10:02:52.429Z,5.70
2019-01-17T10:05:20.918Z,5.70
2019-01-17T10:07:49.740Z,5.70
2019-01-17T10:10:20.748Z,5.70
2019-01-17T10:12:49.506Z,5.70
2019-01-17T10:15:26.692Z,5.70
2019-01-17T10:18:03.868Z,5.80
2019-01-17T10:20:59.664Z,5.70
2019-01-17T10:23:39.920Z,5.70
2019-01-17T10:26:14.121Z,5.80
2019-01-17T10:29:02.403Z,5.70
2019-01-17T10:31:39.984Z,5.70
2019-01-17T10:34:27.757Z,5.80
2019-01-17T10:37:20.431Z,5.70
2019-01-17T10:40:25.046Z,5.90
2019-01-17T10:43:14.813Z,5.80
2019-01-17T10:46:09.057Z,5.70
2019-01-17T10:49:02.060Z,5.70
2019-01-17T10:51:36.608Z,5.80
2019-01-17T10:54:16.419Z,5.90
2019-01-17T10:57:02.904Z,5.90
2019-01-17T10:59:37.304Z,5.90
2019-01-17T11:02:11.694Z,6.00
2019-01-17T11:04:59.584Z,6.00
2019-01-17T11:07:46.161Z,6.00
2019-01-17T11:10:33.989Z,6.00
2019-01-17T11:13:14.356Z,6.00
2019-01-17T11:16:07.065Z,6.10
2019-01-17T11:18:41.317Z,6.20
2019-01-17T11:21:36.793Z,6.20
2019-01-17T11:24:17.013Z,6.30
2019-01-17T11:27:06.797Z,6.30
2019-01-17T11:29:44.228Z,6.30
2019-01-17T11:32:25.512Z,6.20
2019-01-17T11:35:02.736Z,6.10
2019-01-17T11:37:55.104Z,6.10
2019-01-17T11:40:26.584Z,6.10
2019-01-17T11:43:21.850Z,6.20
2019-01-17T11:46:28.684Z,6.10
2019-01-17T11:49:22.441Z,6.10
2019-01-17T11:52:18.872Z,6.10
2019-01-17T11:54:59.516Z,6.10
2019-01-17T11:57:36.804Z,6.10
2019-01-17T12:00:20.080Z,6.10
2019-01-17T12:02:51.553Z,6.10
2019-01-17T12:05:19.964Z,6.20
2019-01-17T12:07:48.417Z,6.20
2019-01-17T12:10:16.827Z,6.00
2019-01-17T12:12:47.060Z,6.10
2019-01-17T12:15:16.324Z,6.10
2019-01-17T12:17:44.721Z,6.10
2019-01-17T12:20:13.130Z,6.10
2019-01-17T12:22:41.524Z,6.10
2019-01-17T12:25:09.944Z,6.10
2019-01-17T12:27:42.524Z,6.00
2019-01-17T12:30:11.384Z,6.10
2019-01-17T12:32:39.787Z,6.00
2019-01-17T12:35:11.040Z,6.00
2019-01-17T12:37:40.571Z,5.90
2019-01-17T12:40:11.304Z,5.80
2019-01-17T12:42:39.716Z,5.80
2019-01-17T12:45:09.659Z,5.80
2019-01-17T12:47:38.088Z,5.80
2019-01-17T12:50:09.732Z,5.80
2019-01-17T12:52:38.139Z,5.90
2019-01-17T12:55:08.372Z,5.80
2019-01-17T12:57:36.780Z,5.70
2019-01-17T13:00:17.122Z,5.40
2019-01-17T13:02:45.531Z,5.30
2019-01-17T13:05:13.926Z,5.20
2019-01-17T13:07:42.382Z,5.10
2019-01-17T13:10:13.039Z,4.90
2019-01-17T13:12:41.761Z,5.00
2019-01-17T13:15:12.284Z,5.00
2019-01-17T13:17:41.038Z,4.90
2019-01-17T13:20:16.399Z,4.90
2019-01-17T13:22:44.796Z,4.90
2019-01-17T13:25:16.532Z,4.90
2019-01-17T13:27:45.321Z,4.90
2019-01-17T13:30:19.120Z,5.00
2019-01-17T13:32:47.815Z,4.90
2019-01-17T13:35:16.752Z,4.90
2019-01-17T13:37:45.525Z,4.90
2019-01-17T13:40:19.391Z,4.90
2019-01-17T13:42:48.084Z,5.00
2019-01-17T13:45:18.714Z,4.90
2019-01-17T13:47:47.908Z,5.10
2019-01-17T13:50:17.153Z,5.10
2019-01-17T13:52:45.928Z,5.10
2019-01-17T13:55:19.579Z,5.20
2019-01-17T13:57:48.183Z,5.30
2019-01-17T14:00:21.833Z,5.90
2019-01-17T14:02:50.511Z,6.20
2019-01-17T14:05:18.985Z,6.50
2019-01-17T14:07:48.125Z,6.70
2019-01-17T14:10:17.844Z,6.70
2019-01-17T14:12:46.520Z,6.60
2019-01-17T14:15:18.172Z,6.40
2019-01-17T14:17:46.561Z,6.60
2019-01-17T14:20:14.960Z,6.30
2019-01-17T14:22:43.356Z,6.30
2019-01-17T14:25:14.473Z,6.50
2019-01-17T14:27:46.570Z,6.40
2019-01-17T14:30:21.041Z,6.30
2019-01-17T14:32:49.438Z,6.80
2019-01-17T14:35:17.846Z,6.40
2019-01-17T14:37:46.328Z,6.40
2019-01-17T14:40:14.900Z,6.40
2019-01-17T14:42:43.297Z,6.80
2019-01-17T14:45:14.816Z,6.50
2019-01-17T14:47:43.189Z,6.40
2019-01-17T14:50:14.936Z,6.40
2019-01-17T14:52:43.511Z,6.20
2019-01-17T14:55:12.069Z,6.20
2019-01-17T14:57:40.467Z,6.10
2019-01-17T15:00:14.792Z,6.30
2019-01-17T15:02:43.185Z,6.40
2019-01-17T15:05:12.137Z,6.60
2019-01-17T15:07:40.627Z,5.70
2019-01-17T15:10:30.086Z,5.30
2019-01-17T15:12:58.496Z,5.10
2019-01-17T15:15:26.912Z,4.90
2019-01-17T15:17:55.373Z,4.90
2019-01-17T15:20:23.808Z,4.90
2019-01-17T15:22:53.000Z,4.80
2019-01-17T15:25:21.644Z,4.80
2019-01-17T15:27:50.050Z,5.50
2019-01-17T15:30:23.696Z,5.80
2019-01-17T15:32:52.936Z,5.70
2019-01-17T15:35:22.885Z,5.60
2019-01-17T15:37:51.296Z,5.70
2019-01-17T15:40:22.742Z,5.60
2019-01-17T15:42:51.321Z,5.70
2019-01-17T15:45:20.053Z,5.60
2019-01-17T15:47:48.924Z,5.50
2019-01-17T15:50:19.557Z,5.40
2019-01-17T15:52:48.503Z,5.30
2019-01-17T15:55:18.013Z,5.40
2019-01-17T15:57:47.118Z,5.40
2019-01-17T16:00:22.161Z,5.40
2019-01-17T16:02:50.649Z,5.30
2019-01-17T16:05:19.885Z,5.30
2019-01-17T16:07:48.408Z,5.00
2019-01-17T16:10:17.375Z,4.90
2019-01-17T16:12:47.252Z,4.90
2019-01-17T16:15:18.759Z,7.30
2019-01-17T16:17:47.165Z,4.90
2019-01-17T16:20:17.308Z,4.80
2019-01-17T16:22:46.260Z,4.70
2019-01-17T16:25:15.887Z,4.80
2019-01-17T16:27:44.400Z,4.70
2019-01-17T16:30:18.763Z,4.70
2019-01-17T16:32:47.174Z,4.70
2019-01-17T16:35:15.567Z,4.70
2019-01-17T16:37:44.245Z,4.60
2019-01-17T16:40:13.788Z,4.60
2019-01-17T16:42:42.187Z,4.50
2019-01-17T16:45:13.950Z,4.40
2019-01-17T16:47:42.545Z,4.30
2019-01-17T16:50:14.096Z,4.20
2019-01-17T16:52:42.515Z,4.20
2019-01-17T16:55:11.539Z,4.10
2019-01-17T16:57:39.953Z,4.00
2019-01-17T17:00:17.243Z,2.90
2019-01-17T17:02:45.665Z,3.90
2019-01-17T17:05:15.250Z,3.90
2019-01-17T17:07:43.779Z,4.00
2019-01-17T17:10:14.628Z,3.90
2019-01-17T17:12:43.025Z,4.10
2019-01-17T17:15:11.969Z,4.20
2019-01-17T17:17:40.383Z,4.30
2019-01-17T17:20:11.852Z,4.30
2019-01-17T17:22:40.277Z,4.40
2019-01-17T17:25:08.765Z,4.40
2019-01-17T17:27:37.169Z,4.20
2019-01-17T17:30:11.464Z,4.20
2019-01-17T17:32:39.873Z,4.20
2019-01-17T17:35:08.396Z,4.10
2019-01-17T17:37:38.000Z,4.10
2019-01-17T17:40:12.346Z,4.10
2019-01-17T17:42:40.746Z,4.00
2019-01-17T17:45:11.385Z,3.90
2019-01-17T17:47:39.780Z,3.80
2019-01-17T17:50:11.401Z,3.60
2019-01-17T17:52:39.970Z,3.80
2019-01-17T17:55:11.529Z,3.70
2019-01-17T17:57:39.930Z,3.60
2019-01-17T18:00:24.984Z,3.60
2019-01-17T18:02:53.848Z,3.50
2019-01-17T18:05:22.328Z,3.20
2019-01-17T18:07:50.740Z,3.00
2019-01-17T18:10:21.747Z,2.80
2019-01-17T18:12:50.157Z,2.60
2019-01-17T18:15:19.470Z,2.50
2019-01-17T18:17:48.600Z,2.40
2019-01-17T18:20:19.135Z,2.40
2019-01-17T18:22:47.519Z,2.30
2019-01-17T18:25:15.923Z,2.20
2019-01-17T18:27:44.324Z,2.20
2019-01-17T18:30:21.519Z,2.00
2019-01-17T18:32:50.092Z,1.80
2019-01-17T18:35:18.519Z,1.60
2019-01-17T18:37:46.926Z,1.60
2019-01-17T18:40:22.262Z,1.60
2019-01-17T18:42:50.808Z,1.60
2019-01-17T18:45:24.607Z,1.40
2019-01-17T18:47:53.000Z,1.50
2019-01-17T18:50:27.104Z,1.40
2019-01-17T18:52:57.034Z,1.40
2019-01-17T18:55:25.434Z,1.40
2019-01-17T18:57:54.099Z,1.50
2019-01-17T19:00:26.273Z,1.70
2019-01-17T19:02:54.849Z,1.70
2019-01-17T19:05:23.887Z,1.60
2019-01-17T19:07:52.303Z,1.80
2019-01-17T19:10:22.203Z,2.00
2019-01-17T19:12:50.884Z,2.00
2019-01-17T19:15:24.492Z,2.00
2019-01-17T19:17:52.906Z,2.00
2019-01-17T19:20:21.314Z,1.90
2019-01-17T19:22:49.981Z,1.90
2019-01-17T19:25:20.138Z,1.90
2019-01-17T19:27:49.055Z,1.90
2019-01-17T19:30:20.588Z,2.00
2019-01-17T19:32:48.988Z,1.90
2019-01-17T19:35:17.757Z,2.00
2019-01-17T19:37:46.328Z,2.00
2019-01-17T19:40:17.185Z,2.00
2019-01-17T19:42:45.593Z,2.10
2019-01-17T19:45:15.727Z,2.00
2019-01-17T19:47:44.777Z,2.00
2019-01-17T19:50:27.268Z,2.00
2019-01-17T19:52:56.028Z,2.20
2019-01-17T19:55:24.533Z,2.10
2019-01-17T19:57:52.945Z,2.20
2019-01-17T20:00:23.571Z,2.10
2019-01-17T20:02:52.248Z,2.10
2019-01-17T20:05:23.381Z,2.10
2019-01-17T20:07:51.914Z,2.10
2019-01-17T20:10:23.519Z,2.10
2019-01-17T20:12:52.301Z,2.10
2019-01-17T20:15:21.390Z,2.00
2019-01-17T20:17:49.857Z,2.00
2019-01-17T20:20:19.028Z,2.00
2019-01-17T20:22:47.879Z,1.70
2019-01-17T20:25:16.545Z,1.60
2019-01-17T20:27:45.352Z,1.60
2019-01-17T20:30:16.750Z,1.80
2019-01-17T20:32:45.157Z,1.80
2019-01-17T20:35:14.659Z,2.00
2019-01-17T20:37:43.937Z,1.80
2019-01-17T20:40:15.375Z,1.80
2019-01-17T20:42:43.783Z,1.90
2019-01-17T20:45:13.652Z,1.90
2019-01-17T20:47:42.529Z,1.80
2019-01-17T20:50:13.928Z,2.00
2019-01-17T20:52:42.340Z,1.90
2019-01-17T20:55:12.204Z,2.00
2019-01-17T20:57:41.196Z,2.00
2019-01-17T21:00:27.540Z,1.90
2019-01-17T21:02:55.949Z,1.70
2019-01-17T21:05:25.583Z,1.70
2019-01-17T21:07:54.259Z,1.60
2019-01-17T21:10:24.345Z,1.60
2019-01-17T21:12:52.758Z,1.50
2019-01-17T21:15:21.161Z,1.50
2019-01-17T21:17:50.257Z,1.50
2019-01-17T21:20:18.757Z,1.60
2019-01-17T21:22:47.337Z,1.70
2019-01-17T21:25:20.300Z,1.70
2019-01-17T21:27:49.000Z,1.60
2019-01-17T21:30:23.189Z,1.60
2019-01-17T21:32:51.596Z,1.50
2019-01-17T21:35:20.042Z,1.50
2019-01-17T21:37:48.432Z,1.40
2019-01-17T21:40:21.905Z,1.40
2019-01-17T21:42:50.296Z,1.30
2019-01-17T21:45:19.653Z,1.40
2019-01-17T21:47:48.326Z,1.30
2019-01-17T21:50:22.535Z,1.20
2019-01-17T21:52:51.233Z,1.20
2019-01-17T21:55:19.635Z,1.10
2019-01-17T21:57:48.028Z,1.00
2019-01-17T22:00:22.080Z,1.00
2019-01-17T22:02:50.478Z,0.90
2019-01-17T22:05:18.924Z,0.90
2019-01-17T22:07:47.385Z,0.90
2019-01-17T22:10:17.533Z,0.90
2019-01-17T22:12:46.202Z,0.90
2019-01-17T22:15:20.207Z,0.90
2019-01-17T22:17:48.604Z,1.00
2019-01-17T22:20:17.283Z,1.00
2019-01-17T22:22:45.690Z,1.00
2019-01-17T22:25:19.499Z,1.10
2019-01-17T22:27:49.645Z,1.10
2019-01-17T22:30:20.653Z,1.00
2019-01-17T22:32:49.085Z,1.00
2019-01-17T22:35:18.659Z,1.00
2019-01-17T22:37:48.111Z,1.00
2019-01-17T22:40:17.457Z,1.00
2019-01-17T22:42:45.861Z,1.00
2019-01-17T22:45:23.124Z,0.90
2019-01-17T22:47:51.560Z,0.90
2019-01-17T22:50:20.240Z,0.80
2019-01-17T22:52:50.080Z,0.90
2019-01-17T22:55:18.479Z,0.90
2019-01-17T22:57:46.881Z,0.80
2019-01-17T23:00:31.946Z,0.80
2019-01-17T23:03:00.460Z,0.80
2019-01-17T23:05:28.872Z,0.70
2019-01-17T23:07:57.264Z,0.70
2019-01-17T23:10:25.673Z,0.80
2019-01-17T23:12:54.124Z,0.80
2019-01-17T23:15:22.531Z,0.70
2019-01-17T23:17:50.947Z,0.70
2019-01-17T23:20:19.352Z,0.80
2019-01-17T23:22:47.744Z,0.70
2019-01-17T23:25:16.153Z,0.60
2019-01-17T23:27:44.548Z,0.50
2019-01-17T23:30:15.644Z,0.60
2019-01-17T23:32:44.372Z,0.50
2019-01-17T23:35:12.785Z,0.50
2019-01-17T23:37:41.184Z,0.40
2019-01-17T23:40:11.032Z,0.50
2019-01-17T23:42:39.427Z,0.50
2019-01-17T23:45:10.736Z,0.60
2019-01-17T23:47:39.134Z,0.50
2019-01-17T23:50:10.077Z,0.50
2019-01-17T23:52:38.483Z,0.40
2019-01-17T23:55:07.728Z,0.40
2019-01-17T23:57:36.136Z,0.30
